createdAt,value
2022-12-27T00:05:17.756Z,24.00
2022-12-27T00:11:32.604Z,24.00
2022-12-27T00:17:43.040Z,24.20
2022-12-27T00:23:53.633Z,24.40
2022-12-27T00:30:07.487Z,24.40
2022-12-27T00:36:17.133Z,24.30
2022-12-27T00:42:25.915Z,24.00
2022-12-27T00:48:37.137Z,23.90
2022-12-27T00:54:49.385Z,24.20
2022-12-27T01:01:03.823Z,24.40
2022-12-27T01:07:14.109Z,24.20
2022-12-27T01:13:22.747Z,24.00
2022-12-27T01:19:31.990Z,23.90
2022-12-27T01:25:41.742Z,24.00
2022-12-27T01:31:55.816Z,24.20
2022-12-27T01:38:06.603Z,24.40
2022-12-27T01:44:54.080Z,24.20
2022-12-27T01:51:06.281Z,24.10
2022-12-27T01:57:19.162Z,23.80
2022-12-27T02:03:31.720Z,23.70
2022-12-27T02:09:43.812Z,23.60
2022-12-27T02:15:54.080Z,23.50
2022-12-27T02:22:13.277Z,23.40
2022-12-27T02:28:37.707Z,23.20
2022-12-27T02:34:53.548Z,23.20
2022-12-27T02:41:22.423Z,23.20
2022-12-27T02:47:48.345Z,23.10
2022-12-27T02:54:03.046Z,23.10
2022-12-27T03:00:32.460Z,23.00
2022-12-27T03:07:09.163Z,23.00
2022-12-27T03:13:42.312Z,22.90
2022-12-27T03:20:08.911Z,22.80
2022-12-27T03:26:17.064Z,22.70
2022-12-27T03:32:45.246Z,22.70
2022-12-27T03:38:55.334Z,22.70
2022-12-27T03:45:04.248Z,22.60
2022-12-27T03:51:14.994Z,22.50
2022-12-27T03:57:24.874Z,22.50
2022-12-27T04:03:34.351Z,22.50
2022-12-27T04:10:01.498Z,22.40
2022-12-27T04:16:26.624Z,22.40
2022-12-27T04:22:53.522Z,22.30
2022-12-27T04:29:20.585Z,22.20
2022-12-27T04:35:30.092Z,22.20
2022-12-27T04:41:56.650Z,22.10
2022-12-27T04:48:42.430Z,22.10
2022-12-27T05:01:25.296Z,22.00
2022-12-27T05:07:51.687Z,22.00
2022-12-27T05:14:04.313Z,21.90
2022-12-27T05:20:20.058Z,21.90
2022-12-27T05:26:28.083Z,21.80
2022-12-27T05:32:36.556Z,21.80
2022-12-27T05:38:46.430Z,21.80
2022-12-27T05:44:56.482Z,21.70
2022-12-27T05:51:09.138Z,21.60
2022-12-27T05:57:18.323Z,21.80
2022-12-27T06:03:29.114Z,22.00
2022-12-27T06:09:38.316Z,21.90
2022-12-27T06:15:47.606Z,21.70
2022-12-27T06:21:59.496Z,21.70
2022-12-27T06:28:07.319Z,21.80
2022-12-27T06:34:17.296Z,22.00
2022-12-27T06:46:45.845Z,21.90
2022-12-27T06:52:55.337Z,21.80
2022-12-27T06:59:04.066Z,22.00
2022-12-27T07:05:14.994Z,22.00
2022-12-27T07:11:24.615Z,21.90
2022-12-27T07:17:33.789Z,21.70
2022-12-27T07:23:42.995Z,21.90
2022-12-27T07:29:52.317Z,22.10
2022-12-27T07:36:02.725Z,22.00
2022-12-27T07:42:13.831Z,21.80
2022-12-27T07:48:25.183Z,21.80
2022-12-27T07:54:38.513Z,22.00
2022-12-27T08:00:47.818Z,22.10
2022-12-27T08:06:59.717Z,21.90
2022-12-27T08:13:12.311Z,21.70
2022-12-27T08:19:24.009Z,21.90
2022-12-27T08:25:33.109Z,22.00
2022-12-27T08:31:43.780Z,22.00
2022-12-27T08:37:51.562Z,21.80
2022-12-27T08:44:04.813Z,21.80
2022-12-27T08:50:18.388Z,22.00
2022-12-27T08:56:28.268Z,22.00
2022-12-27T09:02:36.648Z,21.80
2022-12-27T09:08:47.731Z,21.80
2022-12-27T09:15:00.242Z,21.90
2022-12-27T09:21:13.706Z,22.10
2022-12-27T09:27:23.826Z,21.90
2022-12-27T09:33:34.776Z,21.80
2022-12-27T09:39:45.479Z,21.90
2022-12-27T09:45:55.392Z,22.10
2022-12-27T09:52:07.181Z,22.00
2022-12-27T09:58:35.359Z,21.90
2022-12-27T10:11:02.411Z,22.00
2022-12-27T10:17:13.630Z,22.00
2022-12-27T10:23:21.955Z,21.90
2022-12-27T10:29:30.793Z,21.80
2022-12-27T10:35:40.583Z,21.90
2022-12-27T10:41:52.517Z,22.00
2022-12-27T10:48:05.618Z,21.90
2022-12-27T10:54:16.663Z,21.80
2022-12-27T11:00:31.448Z,21.90
2022-12-27T11:06:40.655Z,22.00
2022-12-27T11:13:02.507Z,22.00
2022-12-27T11:19:18.293Z,21.80
2022-12-27T11:25:27.874Z,21.80
2022-12-27T11:31:38.946Z,22.00
2022-12-27T11:37:49.623Z,22.00
2022-12-27T11:44:01.914Z,21.90
2022-12-27T11:50:22.067Z,21.80
2022-12-27T11:56:33.077Z,21.90
2022-12-27T12:02:54.493Z,22.00
2022-12-27T12:09:18.806Z,21.90
2022-12-27T12:15:55.922Z,21.80
2022-12-27T12:22:12.913Z,21.90
2022-12-27T12:29:00.336Z,22.10
2022-12-27T12:35:41.742Z,22.30
2022-12-27T12:42:00.645Z,22.60
2022-12-27T12:48:20.459Z,22.80
2022-12-27T12:54:48.289Z,23.00
2022-12-27T13:01:33.672Z,23.20
2022-12-27T13:07:52.216Z,23.20
2022-12-27T13:14:16.612Z,23.10
2022-12-27T13:20:41.074Z,23.10
2022-12-27T13:26:55.347Z,23.30
2022-12-27T13:39:53.467Z,23.20
2022-12-27T13:46:10.756Z,23.20
2022-12-27T13:52:37.880Z,23.40
2022-12-27T13:59:02.464Z,23.60
2022-12-27T14:05:36.908Z,23.60
2022-12-27T14:11:51.579Z,23.40
2022-12-27T14:18:34.187Z,23.50
2022-12-27T14:24:58.242Z,23.70
2022-12-27T14:31:33.939Z,23.70
2022-12-27T14:38:14.304Z,23.40
2022-12-27T14:52:04.681Z,23.50
2022-12-27T14:58:22.146Z,23.80
2022-12-27T15:11:36.458Z,23.80
2022-12-27T15:17:54.376Z,23.60
2022-12-27T15:24:04.685Z,23.80
2022-12-27T15:30:36.231Z,24.00
2022-12-27T15:36:47.343Z,24.00
2022-12-27T15:42:58.924Z,23.90
2022-12-27T15:49:15.283Z,23.70
2022-12-27T15:55:27.477Z,23.60
2022-12-27T16:01:41.190Z,23.70
2022-12-27T16:07:54.563Z,23.90
2022-12-27T16:14:34.403Z,23.90
2022-12-27T16:20:56.007Z,23.60
2022-12-27T16:27:05.486Z,23.60
2022-12-27T16:33:38.213Z,23.70
2022-12-27T16:40:00.480Z,23.90
2022-12-27T16:46:21.980Z,24.00
2022-12-27T16:59:49.552Z,23.60
2022-12-27T17:12:15.902Z,23.60
2022-12-27T17:18:30.055Z,23.80
2022-12-27T17:24:41.217Z,23.90
2022-12-27T17:30:51.487Z,23.60
2022-12-27T17:37:02.725Z,23.40
2022-12-27T17:43:35.304Z,23.30
2022-12-27T17:49:45.119Z,23.60
2022-12-27T17:56:22.358Z,23.80
2022-12-27T18:02:38.799Z,23.70
2022-12-27T18:08:51.386Z,23.50
2022-12-27T18:15:02.595Z,23.70
2022-12-27T18:21:16.871Z,23.90
2022-12-27T18:27:29.404Z,23.80
2022-12-27T18:33:44.672Z,23.70
2022-12-27T18:39:56.853Z,23.60
2022-12-27T18:46:07.396Z,23.50
2022-12-27T18:52:19.424Z,23.70
2022-12-27T18:58:27.919Z,24.00
2022-12-27T19:04:38.139Z,24.00
2022-12-27T19:10:50.859Z,23.80
2022-12-27T19:16:59.076Z,23.70
2022-12-27T19:23:10.525Z,23.90
2022-12-27T19:29:21.057Z,24.20
2022-12-27T19:35:28.789Z,24.10
2022-12-27T19:41:38.898Z,23.90
2022-12-27T19:47:47.168Z,23.80
2022-12-27T19:53:58.524Z,23.90
2022-12-27T20:00:12.585Z,24.30
2022-12-27T20:06:24.046Z,24.10
2022-12-27T20:12:34.982Z,23.90
2022-12-27T20:18:43.028Z,23.80
2022-12-27T20:24:55.633Z,24.10
2022-12-27T20:31:08.712Z,24.30
2022-12-27T20:37:22.679Z,24.20
2022-12-27T20:43:29.854Z,23.90
2022-12-27T20:49:38.388Z,23.80
2022-12-27T20:55:54.711Z,24.00
2022-12-27T21:02:09.396Z,24.30
2022-12-27T21:08:23.914Z,24.10
2022-12-27T21:21:05.337Z,24.00
2022-12-27T21:27:14.860Z,24.30
2022-12-27T21:33:27.551Z,24.20
2022-12-27T21:39:36.967Z,24.00
2022-12-27T21:45:45.141Z,23.70
2022-12-27T21:51:58.840Z,23.90
2022-12-27T21:58:08.705Z,24.20
2022-12-27T22:10:37.342Z,24.20
2022-12-27T22:16:51.665Z,23.90
2022-12-27T22:23:04.462Z,23.90
2022-12-27T22:29:17.837Z,24.10
2022-12-27T22:35:28.280Z,24.30
2022-12-27T22:41:41.412Z,24.20
2022-12-27T22:47:54.352Z,24.00
2022-12-27T22:54:04.296Z,23.70
2022-12-27T23:00:16.799Z,23.70
2022-12-27T23:06:27.369Z,24.00
2022-12-27T23:12:37.910Z,24.30
2022-12-27T23:18:48.495Z,24.30
2022-12-27T23:24:57.724Z,24.00
2022-12-27T23:31:09.244Z,23.80
2022-12-27T23:37:20.087Z,23.90
2022-12-27T23:43:51.702Z,24.20
2022-12-27T23:49:44.865Z,24.20
2022-12-27T23:56:02.840Z,23.90
